Time;durP1;ratioP1;P1;durP2;ratioP2;P2;SDS_P1;SDS_P2;PMS_P1;PMS_P2;Temp;Humidity;BMP_temperature;BMP_pressure;BME280_temperature;BME280_humidity;BME280_pressure;Samples;Min_cycle;Max_cycle;Signal;HPM_P1;HPM_P2
2021/01/05 00:00:47;;;;;;;15.93;11.47;;;2.20;99.90;;;;;;5017629;28;20171;-72
2021/01/05 00:03:13;;;;;;;18.57;12.17;;;2.30;99.90;;;;;;5027535;28;20460;-71
2021/01/05 00:05:39;;;;;;;13.07;11.40;;;2.30;99.90;;;;;;5001098;28;20198;-72
2021/01/05 00:08:04;;;;;;;16.43;11.80;;;2.30;99.90;;;;;;5005993;28;20445;-73
2021/01/05 00:10:30;;;;;;;17.53;11.83;;;2.30;99.90;;;;;;5016842;28;20253;-72
2021/01/05 00:12:56;;;;;;;14.80;11.60;;;2.40;99.90;;;;;;5025217;28;20430;-73
2021/01/05 00:15:22;;;;;;;16.27;11.57;;;2.30;99.90;;;;;;5025175;28;20937;-73
2021/01/05 00:17:48;;;;;;;17.80;13.07;;;2.40;99.90;;;;;;5028623;28;20253;-72
2021/01/05 00:20:33;;;;;;;17.67;12.50;;;2.30;99.90;;;;;;5024806;28;20435;-72
2021/01/05 00:22:59;;;;;;;15.43;11.47;;;2.30;99.90;;;;;;5024134;28;20564;-72
2021/01/05 00:25:27;;;;;;;17.53;13.23;;;2.30;99.90;;;;;;5020690;28;20464;-72
2021/01/05 00:27:53;;;;;;;16.37;14.03;;;2.30;99.90;;;;;;5021435;28;20211;-72
2021/01/05 00:30:24;;;;;;;14.90;12.47;;;2.30;99.90;;;;;;5003879;28;20433;-72
2021/01/05 00:32:51;;;;;;;14.40;11.77;;;2.30;99.90;;;;;;5024849;28;20190;-72
2021/01/05 00:35:20;;;;;;;13.93;11.70;;;2.30;99.90;;;;;;5022214;28;20436;-72
2021/01/05 00:37:47;;;;;;;13.70;10.93;;;2.30;99.90;;;;;;5021606;28;20800;-72
2021/01/05 00:40:13;;;;;;;14.97;11.10;;;2.20;99.90;;;;;;5025708;28;20452;-73
2021/01/05 00:42:39;;;;;;;16.13;12.37;;;2.20;99.90;;;;;;5028968;28;20781;-73
2021/01/05 00:45:05;;;;;;;16.07;12.33;;;2.20;99.90;;;;;;5016971;28;20187;-73
2021/01/05 00:47:31;;;;;;;16.53;12.23;;;2.30;99.90;;;;;;5021990;28;20213;-73
2021/01/05 00:49:56;;;;;;;13.27;11.37;;;2.30;99.90;;;;;;5008356;28;20461;-72
2021/01/05 00:52:22;;;;;;;14.43;11.40;;;2.20;99.90;;;;;;5024424;28;20187;-72
2021/01/05 00:54:47;;;;;;;14.60;11.10;;;2.20;99.90;;;;;;5026436;28;20566;-74
2021/01/05 00:57:13;;;;;;;14.60;11.50;;;2.20;99.90;;;;;;5024739;28;20673;-74
2021/01/05 00:59:39;;;;;;;16.50;12.30;;;2.30;99.90;;;;;;5011078;28;20210;-74
2021/01/05 01:02:05;;;;;;;15.80;12.27;;;2.30;99.90;;;;;;5025441;28;20195;-74
2021/01/05 01:04:32;;;;;;;16.17;11.83;;;2.20;99.90;;;;;;5027827;28;20426;-75
2021/01/05 01:06:57;;;;;;;16.20;14.10;;;2.20;99.90;;;;;;5018164;28;20427;-74
2021/01/05 01:09:23;;;;;;;13.10;10.90;;;2.20;99.90;;;;;;5021400;28;20812;-74
2021/01/05 01:12:07;;;;;;;14.90;11.63;;;2.20;99.90;;;;;;5005621;28;20179;-73
2021/01/05 01:14:34;;;;;;;15.83;11.10;;;2.20;99.90;;;;;;5026176;28;20175;-74
2021/01/05 01:17:00;;;;;;;15.57;11.40;;;2.30;99.90;;;;;;5026753;28;20513;-74
2021/01/05 01:19:26;;;;;;;15.97;12.23;;;2.30;99.90;;;;;;5026925;28;20457;-74
2021/01/05 01:21:53;;;;;;;14.00;11.00;;;2.30;99.90;;;;;;5010209;28;20500;-73
2021/01/05 01:24:21;;;;;;;13.40;10.13;;;2.30;99.90;;;;;;5000613;28;20816;-73
2021/01/05 01:26:47;;;;;;;14.17;11.47;;;2.30;99.90;;;;;;5024321;28;20799;-73
2021/01/05 01:29:20;;;;;;;16.27;10.53;;;2.20;99.90;;;;;;5023446;28;20434;-74
2021/01/05 01:31:46;;;;;;;17.87;12.43;;;2.30;99.90;;;;;;5021405;28;20635;-74
2021/01/05 01:34:15;;;;;;;14.07;11.10;;;2.30;99.90;;;;;;5026156;28;20433;-73
2021/01/05 01:36:41;;;;;;;14.23;10.83;;;2.30;99.90;;;;;;5023425;28;20444;-73
2021/01/05 01:39:07;;;;;;;14.67;10.73;;;2.30;99.90;;;;;;5021965;28;20438;-74
2021/01/05 01:41:33;;;;;;;16.43;11.47;;;2.30;99.90;;;;;;5025942;28;20709;-74
2021/01/05 01:44:00;;;;;;;16.00;10.50;;;2.30;99.90;;;;;;5022589;28;20769;-73
2021/01/05 01:46:32;;;;;;;15.40;10.50;;;2.40;99.90;;;;;;5021759;28;20507;-74
2021/01/05 01:48:57;;;;;;;11.60;10.10;;;2.20;99.90;;;;;;5023717;28;20986;-73
2021/01/05 01:51:23;;;;;;;15.63;11.70;;;2.20;99.90;;;;;;5007280;28;20426;-73
2021/01/05 01:54:26;;;;;;;14.07;10.70;;;2.30;99.90;;;;;;5023499;28;20207;-74
2021/01/05 01:57:13;;;;;;;16.47;12.07;;;2.20;99.90;;;;;;5019812;28;20196;-73
2021/01/05 02:00:05;;;;;;;17.93;11.40;;;2.20;99.90;;;;;;5017765;28;20583;-75
2021/01/05 02:02:51;;;;;;;12.83;11.43;;;2.30;99.90;;;;;;5006710;28;20552;-73
2021/01/05 02:05:32;;;;;;;15.20;11.23;;;2.30;99.90;;;;;;5026938;28;20430;-72
2021/01/05 02:08:27;;;;;;;14.40;11.07;;;2.20;99.90;;;;;;5019051;28;20561;-73
2021/01/05 02:11:14;;;;;;;14.07;10.67;;;2.30;99.90;;;;;;5021902;28;20458;-73
2021/01/05 02:13:58;;;;;;;13.20;10.17;;;2.30;99.90;;;;;;5018356;28;20442;-72
2021/01/05 02:16:34;;;;;;;14.20;10.57;;;2.20;99.90;;;;;;5018233;28;20950;-73
2021/01/05 02:19:21;;;;;;;14.57;10.77;;;2.20;99.90;;;;;;5013155;28;20454;-72
2021/01/05 02:21:58;;;;;;;13.13;10.77;;;2.20;99.90;;;;;;5018379;28;20436;-72
2021/01/05 02:24:47;;;;;;;13.60;10.50;;;2.30;99.90;;;;;;5014493;28;20704;-71
2021/01/05 02:27:13;;;;;;;12.13;10.40;;;2.30;99.90;;;;;;5022922;28;20900;-72
2021/01/05 02:29:48;;;;;;;13.50;10.20;;;2.30;99.90;;;;;;5026185;28;20491;-73
2021/01/05 02:32:21;;;;;;;12.93;11.60;;;2.30;99.90;;;;;;5024011;28;20187;-73
2021/01/05 02:34:47;;;;;;;15.50;10.97;;;2.20;99.90;;;;;;5026713;28;20696;-73
2021/01/05 02:37:22;;;;;;;14.47;10.17;;;2.20;99.90;;;;;;5025559;28;20929;-73
2021/01/05 02:40:10;;;;;;;15.57;10.97;;;2.30;99.90;;;;;;5006810;28;20202;-73
2021/01/05 02:42:58;;;;;;;10.63;9.20;;;2.40;99.90;;;;;;5020274;28;20519;-73
2021/01/05 02:45:29;;;;;;;14.27;10.33;;;2.30;99.90;;;;;;5022097;28;20469;-73
2021/01/05 02:47:58;;;;;;;13.50;10.33;;;2.30;99.90;;;;;;5026289;28;20449;-73
2021/01/05 02:50:29;;;;;;;17.03;10.70;;;2.30;99.90;;;;;;5024988;28;20513;-73
2021/01/05 02:53:32;;;;;;;15.53;10.73;;;2.30;99.90;;;;;;5025681;28;20437;-73
2021/01/05 02:56:31;;;;;;;12.67;9.60;;;2.20;99.90;;;;;;4966886;28;20440;-73
2021/01/05 02:59:18;;;;;;;14.37;10.90;;;2.30;99.90;;;;;;4961323;28;20461;-73
2021/01/05 03:02:10;;;;;;;11.50;9.63;;;2.30;99.90;;;;;;4960571;28;21059;-73
2021/01/05 03:04:35;;;;;;;12.43;9.60;;;2.30;99.90;;;;;;4964564;28;20463;-72
2021/01/05 03:07:13;;;;;;;13.80;10.50;;;2.30;99.90;;;;;;4966245;28;20421;-73
2021/01/05 03:09:59;;;;;;;16.40;10.43;;;2.30;99.90;;;;;;4965455;28;20208;-73
2021/01/05 03:12:40;;;;;;;14.03;9.73;;;2.20;99.90;;;;;;4965569;28;20425;-73
2021/01/05 03:15:42;;;;;;;13.93;10.17;;;2.20;99.90;;;;;;4965545;28;20428;-73
2021/01/05 03:18:35;;;;;;;13.07;10.40;;;2.20;99.90;;;;;;4948839;28;20839;-73
2021/01/05 03:21:10;;;;;;;13.83;10.47;;;2.20;99.90;;;;;;4965330;28;20440;-73
2021/01/05 03:23:36;;;;;;;13.40;9.70;;;2.20;99.90;;;;;;4966593;28;20476;-72
2021/01/05 03:26:08;;;;;;;13.17;9.87;;;2.20;99.90;;;;;;4950059;28;20439;-70
2021/01/05 03:28:35;;;;;;;13.87;10.40;;;2.30;99.90;;;;;;4965614;28;21139;-73
2021/01/05 03:31:10;;;;;;;15.30;11.03;;;2.20;99.90;;;;;;4978437;28;20935;-73
2021/01/05 03:33:35;;;;;;;13.97;9.33;;;2.30;99.90;;;;;;5026365;28;20425;-74
2021/01/05 03:36:02;;;;;;;11.80;8.93;;;2.30;99.90;;;;;;5019653;28;20437;-72
2021/01/05 03:38:27;;;;;;;14.17;10.43;;;2.30;99.90;;;;;;5025513;28;20212;-72
2021/01/05 03:40:53;;;;;;;12.03;9.90;;;2.30;99.90;;;;;;5008972;28;20453;-72
2021/01/05 03:43:18;;;;;;;12.50;10.17;;;2.30;99.90;;;;;;5030600;28;20219;-73
2021/01/05 03:45:44;;;;;;;11.17;8.97;;;2.30;99.90;;;;;;5030474;28;20187;-73
2021/01/05 03:48:10;;;;;;;14.83;11.53;;;2.20;99.90;;;;;;5033333;28;20207;-72
2021/01/05 03:50:35;;;;;;;11.47;9.50;;;2.30;99.90;;;;;;5016624;28;20191;-73
2021/01/05 03:53:01;;;;;;;12.33;9.40;;;2.30;99.90;;;;;;5028716;28;20202;-73
2021/01/05 03:55:26;;;;;;;13.47;9.93;;;2.30;99.90;;;;;;5012028;28;20191;-73
2021/01/05 03:57:52;;;;;;;14.60;9.80;;;2.20;99.90;;;;;;5021041;28;20210;-72
2021/01/05 04:00:25;;;;;;;12.70;8.87;;;2.30;99.90;;;;;;5014213;28;20244;-72
2021/01/05 04:02:54;;;;;;;11.73;10.03;;;2.30;99.90;;;;;;5026852;28;20214;-72
2021/01/05 04:05:22;;;;;;;13.33;9.80;;;2.20;99.90;;;;;;5021649;28;20453;-73
2021/01/05 04:07:47;;;;;;;13.83;9.60;;;2.30;99.90;;;;;;5006928;28;20479;-73
2021/01/05 04:10:14;;;;;;;12.00;9.80;;;2.30;99.90;;;;;;5033262;28;20974;-73
2021/01/05 04:12:40;;;;;;;11.87;10.63;;;2.30;99.90;;;;;;5030545;28;20191;-74
2021/01/05 04:15:15;;;;;;;15.00;10.00;;;2.40;99.90;;;;;;5025002;28;20448;-73
2021/01/05 04:17:40;;;;;;;12.50;9.90;;;2.30;99.90;;;;;;5020849;28;20981;-73
2021/01/05 04:20:07;;;;;;;13.67;9.33;;;2.30;99.90;;;;;;5027600;28;20479;-73
2021/01/05 04:22:32;;;;;;;13.83;10.70;;;2.40;99.90;;;;;;5027974;28;20237;-74
2021/01/05 04:24:58;;;;;;;12.23;9.97;;;2.40;99.90;;;;;;5028705;28;20906;-73
2021/01/05 04:27:24;;;;;;;11.57;9.30;;;2.30;99.90;;;;;;5029184;28;20198;-73
2021/01/05 04:29:49;;;;;;;13.33;10.03;;;2.30;99.90;;;;;;5010366;28;20640;-73
2021/01/05 04:32:15;;;;;;;11.33;8.97;;;2.30;99.90;;;;;;5029647;28;20287;-73
2021/01/05 04:34:40;;;;;;;13.50;10.23;;;2.30;99.90;;;;;;5027657;28;20206;-73
2021/01/05 04:37:06;;;;;;;11.43;9.30;;;2.30;99.90;;;;;;5027970;28;20282;-73
2021/01/05 04:39:32;;;;;;;12.07;9.70;;;2.30;99.90;;;;;;5025946;28;20312;-73
2021/01/05 04:42:22;;;;;;;11.13;8.70;;;2.30;99.90;;;;;;5025841;28;20187;-74
2021/01/05 04:44:55;;;;;;;11.63;9.10;;;2.30;99.90;;;;;;5027463;28;20222;-74
2021/01/05 04:47:28;;;;;;;12.03;9.07;;;2.30;99.90;;;;;;5028688;28;20407;-72
2021/01/05 04:50:04;;;;;;;9.47;8.27;;;2.30;99.90;;;;;;5004261;28;20469;-74
2021/01/05 04:52:39;;;;;;;9.87;8.23;;;2.40;99.90;;;;;;5031178;28;20439;-73
2021/01/05 04:55:16;;;;;;;11.17;9.27;;;2.40;99.90;;;;;;5028704;28;20453;-73
2021/01/05 04:57:43;;;;;;;13.20;9.00;;;2.40;99.90;;;;;;5026856;28;20806;-73
2021/01/05 05:00:25;;;;;;;9.63;8.00;;;2.40;99.90;;;;;;5027196;28;20438;-74
2021/01/05 05:03:02;;;;;;;9.97;8.67;;;2.50;99.90;;;;;;5028617;28;20461;-73
2021/01/05 05:05:40;;;;;;;12.00;9.03;;;2.40;99.90;;;;;;5021655;28;20906;-72
2021/01/05 05:08:37;;;;;;;11.40;8.77;;;2.40;99.90;;;;;;5026036;28;20822;-73
2021/01/05 05:11:16;;;;;;;10.43;8.70;;;2.40;99.90;;;;;;5028786;28;20905;-73
2021/01/05 05:14:00;;;;;;;11.57;8.90;;;2.40;99.90;;;;;;4999282;28;20461;-73
2021/01/05 05:17:04;;;;;;;10.73;9.57;;;2.30;99.90;;;;;;5023281;28;20488;-73
2021/01/05 05:19:58;;;;;;;8.77;7.57;;;2.30;99.90;;;;;;5022606;28;20465;-73
2021/01/05 05:22:24;;;;;;;10.30;8.17;;;2.30;99.90;;;;;;5021075;28;20422;-73
2021/01/05 05:25:14;;;;;;;12.83;9.50;;;2.30;99.90;;;;;;5028192;28;20414;-73
2021/01/05 05:27:50;;;;;;;11.87;8.50;;;2.40;99.90;;;;;;5022557;28;20250;-73
2021/01/05 05:30:35;;;;;;;9.30;7.70;;;2.40;99.90;;;;;;5027542;28;20421;-73
2021/01/05 05:33:04;;;;;;;11.77;9.23;;;2.40;99.90;;;;;;5027941;28;20433;-73
2021/01/05 05:35:52;;;;;;;11.43;8.57;;;2.50;99.90;;;;;;5027743;28;20934;-73
2021/01/05 05:38:41;;;;;;;13.90;9.27;;;2.50;99.90;;;;;;5027603;28;20468;-73
2021/01/05 05:41:25;;;;;;;10.30;9.30;;;2.50;99.90;;;;;;5024260;28;20447;-74
2021/01/05 05:44:10;;;;;;;12.37;8.73;;;2.50;99.90;;;;;;5009618;28;20467;-74
2021/01/05 05:46:40;;;;;;;11.50;9.77;;;2.40;99.90;;;;;;5020161;28;20421;-73
2021/01/05 05:49:26;;;;;;;10.33;9.13;;;2.50;99.90;;;;;;5009391;28;20450;-73
2021/01/05 05:51:54;;;;;;;12.17;9.83;;;2.40;99.90;;;;;;5026944;28;20457;-73
2021/01/05 05:54:23;;;;;;;12.97;9.47;;;2.40;99.90;;;;;;5026557;28;20481;-73
2021/01/05 05:56:51;;;;;;;11.20;8.73;;;2.30;99.90;;;;;;5027652;28;20426;-74
2021/01/05 05:59:19;;;;;;;11.17;8.93;;;2.30;99.90;;;;;;5025976;28;20508;-73
2021/01/05 06:01:45;;;;;;;11.60;8.50;;;2.40;99.90;;;;;;5026658;28;20465;-73
2021/01/05 06:04:12;;;;;;;11.27;8.47;;;2.40;99.90;;;;;;5029681;28;21012;-73
2021/01/05 06:06:39;;;;;;;10.47;9.27;;;2.40;99.90;;;;;;5009408;28;20207;-73
2021/01/05 06:09:05;;;;;;;13.50;9.27;;;2.40;99.90;;;;;;5026738;28;20453;-73
2021/01/05 06:11:33;;;;;;;12.73;9.33;;;2.40;99.90;;;;;;5026968;28;20425;-73
2021/01/05 06:14:02;;;;;;;9.70;8.70;;;2.40;99.90;;;;;;5027279;28;20191;-74
2021/01/05 06:16:34;;;;;;;9.90;8.73;;;2.30;99.90;;;;;;5026926;28;20444;-72
2021/01/05 06:19:00;;;;;;;15.03;10.10;;;2.40;99.90;;;;;;5025748;28;20480;-73
2021/01/05 06:21:25;;;;;;;13.70;10.73;;;2.40;99.90;;;;;;5021310;28;20918;-73
2021/01/05 06:23:51;;;;;;;12.47;10.33;;;2.40;99.90;;;;;;5008987;28;20485;-73
2021/01/05 06:26:18;;;;;;;11.20;8.53;;;2.30;99.90;;;;;;5029392;28;20247;-73
2021/01/05 06:28:44;;;;;;;10.60;8.73;;;2.30;99.90;;;;;;5029666;28;20277;-73
2021/01/05 06:31:10;;;;;;;13.60;10.00;;;2.30;99.90;;;;;;5021596;28;20426;-73
2021/01/05 06:33:36;;;;;;;12.70;8.93;;;2.20;99.90;;;;;;5026598;28;20454;-72
2021/01/05 06:36:01;;;;;;;12.17;9.50;;;2.20;99.90;;;;;;5026859;28;20233;-72
2021/01/05 06:38:27;;;;;;;12.70;9.50;;;2.20;99.90;;;;;;5008572;28;20302;-73
2021/01/05 06:40:52;;;;;;;12.40;9.90;;;2.20;99.90;;;;;;5026403;28;20207;-74
2021/01/05 06:43:18;;;;;;;14.13;10.10;;;2.20;99.90;;;;;;5026588;28;20389;-73
2021/01/05 06:45:43;;;;;;;11.23;9.00;;;2.20;99.90;;;;;;5006515;28;20183;-73
2021/01/05 06:48:09;;;;;;;10.37;9.20;;;2.20;99.90;;;;;;5026537;28;20209;-73
2021/01/05 06:50:35;;;;;;;12.10;9.03;;;2.20;99.90;;;;;;5026024;28;20214;-74
2021/01/05 06:53:01;;;;;;;12.97;8.70;;;2.30;99.90;;;;;;5026254;28;20933;-73
2021/01/05 06:55:26;;;;;;;13.80;9.70;;;2.30;99.90;;;;;;5026642;28;20235;-73
2021/01/05 06:57:52;;;;;;;10.50;9.27;;;2.30;99.90;;;;;;5026082;28;20499;-73
2021/01/05 07:00:24;;;;;;;12.63;9.83;;;2.30;99.90;;;;;;5026393;28;20215;-74
2021/01/05 07:02:50;;;;;;;15.30;10.37;;;2.30;99.90;;;;;;5018003;28;20725;-73
2021/01/05 07:05:16;;;;;;;13.27;9.43;;;2.30;99.90;;;;;;5026361;28;20485;-72
2021/01/05 07:07:43;;;;;;;13.93;10.57;;;2.30;99.90;;;;;;5025889;28;20446;-73
2021/01/05 07:10:10;;;;;;;15.23;10.00;;;2.30;99.90;;;;;;5026104;28;20516;-73
2021/01/05 07:12:35;;;;;;;14.87;10.67;;;2.30;99.90;;;;;;5002686;28;20783;-73
2021/01/05 07:15:01;;;;;;;18.40;10.80;;;2.30;99.90;;;;;;5023927;28;20421;-73
2021/01/05 07:17:27;;;;;;;13.27;10.30;;;2.30;99.90;;;;;;5026796;28;20191;-74
2021/01/05 07:19:52;;;;;;;11.67;10.10;;;2.20;99.90;;;;;;5026497;28;20942;-73
2021/01/05 07:22:18;;;;;;;14.97;10.70;;;2.20;99.90;;;;;;5025874;28;20756;-73
2021/01/05 07:24:44;;;;;;;14.37;10.60;;;2.20;99.90;;;;;;5029251;28;20198;-73
2021/01/05 07:27:09;;;;;;;14.50;11.20;;;2.20;99.90;;;;;;5029953;28;20214;-73
2021/01/05 07:29:35;;;;;;;16.93;10.90;;;2.20;99.90;;;;;;5030121;28;20243;-73
2021/01/05 07:32:00;;;;;;;16.67;12.57;;;2.20;99.90;;;;;;5009567;28;20921;-73
2021/01/05 07:34:26;;;;;;;16.07;10.50;;;2.10;99.90;;;;;;5029854;28;20693;-74
2021/01/05 07:36:58;;;;;;;13.00;10.33;;;2.10;99.90;;;;;;5011940;28;20183;-72
2021/01/05 07:39:26;;;;;;;16.13;10.80;;;2.20;99.90;;;;;;5022504;28;20433;-73
2021/01/05 07:42:09;;;;;;;13.70;11.07;;;2.30;99.90;;;;;;5029918;28;20414;-73
2021/01/05 07:44:34;;;;;;;16.83;11.10;;;2.30;99.90;;;;;;5023491;28;20480;-73
2021/01/05 07:47:00;;;;;;;13.97;10.30;;;2.30;99.90;;;;;;5026840;28;20437;-73
2021/01/05 07:49:25;;;;;;;18.17;11.20;;;2.30;99.90;;;;;;5023717;28;20221;-73
2021/01/05 07:51:51;;;;;;;15.10;10.80;;;2.40;99.90;;;;;;5029824;28;20187;-74
2021/01/05 07:54:16;;;;;;;15.70;11.30;;;2.30;99.90;;;;;;5029125;28;20194;-73
2021/01/05 07:56:43;;;;;;;17.83;11.13;;;2.40;99.90;;;;;;5029643;28;20201;-73
2021/01/05 07:59:09;;;;;;;15.03;10.70;;;2.50;99.90;;;;;;5030173;28;20218;-73
2021/01/05 08:01:34;;;;;;;14.00;11.10;;;2.40;99.90;;;;;;5029375;28;20442;-73
2021/01/05 08:04:00;;;;;;;15.60;11.77;;;2.50;99.90;;;;;;5011601;28;20213;-73
2021/01/05 08:06:26;;;;;;;15.00;12.07;;;2.50;99.90;;;;;;5023009;28;20270;-73
2021/01/05 08:08:51;;;;;;;17.20;11.60;;;2.50;99.90;;;;;;5031016;28;20207;-73
2021/01/05 08:11:17;;;;;;;14.83;12.30;;;2.50;99.90;;;;;;5031142;28;20180;-74
2021/01/05 08:13:42;;;;;;;17.23;11.40;;;2.40;99.90;;;;;;5031275;28;20559;-73
2021/01/05 08:16:11;;;;;;;16.60;11.90;;;2.30;99.90;;;;;;5013310;28;20257;-72
2021/01/05 08:18:36;;;;;;;16.47;12.50;;;2.50;99.90;;;;;;5030741;28;20639;-73
2021/01/05 08:21:02;;;;;;;18.13;11.80;;;2.40;99.90;;;;;;5029144;28;20454;-73
2021/01/05 08:23:27;;;;;;;15.83;12.37;;;2.40;99.90;;;;;;5028622;28;20237;-73
2021/01/05 08:25:53;;;;;;;15.63;11.40;;;2.50;99.90;;;;;;5028910;28;20179;-73
2021/01/05 08:28:18;;;;;;;18.13;12.87;;;2.50;99.90;;;;;;5027655;28;20191;-73
2021/01/05 08:30:44;;;;;;;16.97;11.33;;;2.60;99.90;;;;;;5029453;28;20179;-73
2021/01/05 08:33:12;;;;;;;16.67;11.90;;;2.60;99.90;;;;;;5028981;28;20186;-73
2021/01/05 08:35:38;;;;;;;17.57;12.20;;;2.60;99.90;;;;;;5028632;28;20763;-74
2021/01/05 08:38:04;;;;;;;14.57;12.93;;;2.70;99.90;;;;;;5010345;28;20449;-73
2021/01/05 08:40:32;;;;;;;16.60;12.40;;;2.80;99.90;;;;;;5028660;28;20245;-73
2021/01/05 08:43:03;;;;;;;17.00;11.83;;;2.80;99.90;;;;;;5011258;28;21077;-73
2021/01/05 08:45:29;;;;;;;14.40;12.40;;;2.80;99.90;;;;;;5008571;28;20448;-74
2021/01/05 08:47:55;;;;;;;15.33;11.97;;;2.80;99.90;;;;;;5027632;28;20450;-74
2021/01/05 08:50:29;;;;;;;17.77;13.50;;;2.90;99.90;;;;;;5023440;28;20441;-73
2021/01/05 08:52:59;;;;;;;18.87;14.00;;;3.00;99.90;;;;;;5028842;28;20178;-73
2021/01/05 08:55:25;;;;;;;18.50;11.93;;;3.00;99.90;;;;;;5011080;28;20425;-73
2021/01/05 08:57:51;;;;;;;18.93;13.87;;;3.10;99.90;;;;;;5028432;28;20434;-73
2021/01/05 09:00:17;;;;;;;17.33;11.73;;;3.00;99.90;;;;;;5010594;28;20487;-73
2021/01/05 09:02:43;;;;;;;17.53;13.80;;;3.10;99.90;;;;;;5028587;28;20211;-73
2021/01/05 09:05:10;;;;;;;16.60;12.30;;;3.00;99.90;;;;;;5028652;28;20751;-73
2021/01/05 09:07:35;;;;;;;14.57;11.97;;;3.00;99.90;;;;;;5028144;28;20237;-73
2021/01/05 09:10:01;;;;;;;16.80;12.90;;;3.00;99.90;;;;;;5027901;28;20430;-73
2021/01/05 09:12:34;;;;;;;17.93;13.20;;;3.10;99.90;;;;;;5007887;28;20265;-73
2021/01/05 09:15:00;;;;;;;16.83;12.40;;;3.10;99.90;;;;;;5010548;28;20175;-73
2021/01/05 09:17:26;;;;;;;15.53;12.67;;;3.10;99.90;;;;;;5010202;28;20434;-74
2021/01/05 09:19:51;;;;;;;15.97;12.30;;;3.10;99.90;;;;;;5028064;28;20921;-73
2021/01/05 09:22:22;;;;;;;16.67;12.47;;;3.10;99.90;;;;;;5027783;28;20175;-73
2021/01/05 09:24:47;;;;;;;17.60;11.53;;;3.10;99.90;;;;;;5027998;28;20195;-74
2021/01/05 09:27:13;;;;;;;18.90;12.33;;;3.10;99.90;;;;;;5022316;28;20414;-71
2021/01/05 09:29:38;;;;;;;18.03;11.97;;;3.10;99.90;;;;;;5009086;28;20226;-74
2021/01/05 09:32:04;;;;;;;17.00;12.40;;;3.10;99.90;;;;;;5027117;28;20201;-73
2021/01/05 09:34:30;;;;;;;15.87;12.80;;;3.10;99.90;;;;;;5027865;28;20219;-73
2021/01/05 09:36:55;;;;;;;18.00;12.10;;;3.10;99.90;;;;;;5027462;28;20429;-74
2021/01/05 09:39:23;;;;;;;16.40;12.53;;;3.20;99.90;;;;;;5027826;28;20231;-75
2021/01/05 09:41:56;;;;;;;18.80;13.53;;;3.20;99.90;;;;;;5027863;28;20298;-74
2021/01/05 09:44:22;;;;;;;18.87;12.67;;;3.20;99.90;;;;;;4998195;28;20497;-76
2021/01/05 09:46:51;;;;;;;16.27;12.13;;;3.10;99.90;;;;;;5024770;28;20489;-74
2021/01/05 09:49:18;;;;;;;15.57;11.70;;;3.10;99.90;;;;;;5028180;28;20203;-74
2021/01/05 09:51:44;;;;;;;16.80;11.90;;;3.10;99.90;;;;;;5020576;28;20964;-74
2021/01/05 09:54:10;;;;;;;17.60;13.07;;;3.20;99.90;;;;;;5026226;28;20461;-74
2021/01/05 09:56:35;;;;;;;16.90;13.83;;;3.30;99.90;;;;;;5027381;28;20335;-73
2021/01/05 09:59:01;;;;;;;14.67;11.07;;;3.40;99.90;;;;;;5027622;28;20459;-74
2021/01/05 10:01:29;;;;;;;15.00;11.80;;;3.50;99.90;;;;;;5027205;28;20190;-74
2021/01/05 10:03:54;;;;;;;16.67;12.57;;;3.40;99.90;;;;;;5027339;28;20246;-74
2021/01/05 10:06:26;;;;;;;15.93;11.30;;;3.40;99.90;;;;;;5027298;28;20831;-74
2021/01/05 10:08:51;;;;;;;17.60;12.47;;;3.50;99.90;;;;;;5009058;28;20211;-73
2021/01/05 10:11:17;;;;;;;13.93;12.23;;;3.50;99.90;;;;;;5027121;28;20817;-74
2021/01/05 10:13:42;;;;;;;13.90;11.27;;;3.60;99.90;;;;;;5019056;28;20198;-74
2021/01/05 10:16:08;;;;;;;14.80;11.23;;;3.60;99.90;;;;;;5021079;28;20190;-74
2021/01/05 10:18:34;;;;;;;16.13;12.03;;;3.70;99.90;;;;;;5026972;28;20211;-74
2021/01/05 10:21:00;;;;;;;15.93;12.40;;;3.60;99.90;;;;;;5026942;28;20183;-74
2021/01/05 10:23:25;;;;;;;15.07;12.20;;;3.60;99.90;;;;;;5026654;28;20479;-74
2021/01/05 10:25:51;;;;;;;13.17;11.20;;;3.60;99.90;;;;;;5026925;28;20189;-73
2021/01/05 10:28:17;;;;;;;14.27;11.93;;;3.70;99.90;;;;;;5026488;28;20556;-74
2021/01/05 10:30:42;;;;;;;16.20;13.27;;;3.70;99.90;;;;;;5026886;28;20596;-74
2021/01/05 10:33:08;;;;;;;16.60;13.00;;;3.90;99.90;;;;;;5026417;28;20202;-74
2021/01/05 10:35:33;;;;;;;16.60;12.20;;;3.90;99.90;;;;;;5027061;28;20202;-75
2021/01/05 10:37:59;;;;;;;16.73;12.33;;;3.90;99.90;;;;;;5026179;28;20237;-74
2021/01/05 10:40:25;;;;;;;12.70;10.10;;;4.00;99.90;;;;;;5026769;28;20203;-74
2021/01/05 10:42:50;;;;;;;16.63;13.07;;;4.00;99.90;;;;;;5009116;28;20276;-74
2021/01/05 10:45:22;;;;;;;14.73;11.67;;;3.90;99.90;;;;;;5016936;28;20426;-74
2021/01/05 10:47:48;;;;;;;15.77;11.87;;;3.90;99.90;;;;;;5027952;28;20200;-74
2021/01/05 10:50:17;;;;;;;13.00;11.10;;;3.90;99.90;;;;;;5027977;28;20861;-75
2021/01/05 10:52:45;;;;;;;14.37;11.87;;;3.90;99.90;;;;;;5009820;28;21020;-74
2021/01/05 10:55:12;;;;;;;14.87;12.03;;;3.80;99.90;;;;;;5026239;28;20477;-74
2021/01/05 10:57:37;;;;;;;18.60;12.87;;;3.90;99.90;;;;;;5030501;28;20573;-75
2021/01/05 11:00:05;;;;;;;16.43;11.90;;;3.80;99.90;;;;;;5029302;28;20430;-74
2021/01/05 11:02:30;;;;;;;13.90;11.20;;;3.90;99.90;;;;;;5026384;28;20210;-74
2021/01/05 11:04:56;;;;;;;13.17;11.37;;;3.90;99.90;;;;;;5008388;28;20945;-74
2021/01/05 11:07:22;;;;;;;13.80;11.97;;;3.90;99.90;;;;;;5025839;28;20187;-74
2021/01/05 11:09:47;;;;;;;15.10;12.10;;;3.90;99.90;;;;;;5026384;28;20655;-74
2021/01/05 11:12:20;;;;;;;15.40;11.47;;;4.00;99.90;;;;;;5008130;28;20896;-73
2021/01/05 11:14:46;;;;;;;14.60;11.43;;;4.00;99.90;;;;;;5026223;28;20199;-75
2021/01/05 11:17:11;;;;;;;16.30;11.27;;;4.00;99.90;;;;;;5007998;28;20499;-74
2021/01/05 11:19:39;;;;;;;14.03;11.30;;;4.00;99.90;;;;;;5027047;28;20233;-73
2021/01/05 11:22:07;;;;;;;14.97;11.50;;;4.00;99.90;;;;;;5026025;28;20557;-74
2021/01/05 11:24:35;;;;;;;11.80;10.30;;;4.00;99.90;;;;;;5008414;28;20568;-75
2021/01/05 11:27:02;;;;;;;13.33;11.13;;;4.00;99.90;;;;;;5025580;28;20434;-75
2021/01/05 11:29:28;;;;;;;14.00;11.67;;;3.90;99.90;;;;;;5008326;28;20480;-74
2021/01/05 11:32:06;;;;;;;16.57;11.80;;;3.90;99.90;;;;;;5025880;28;20449;-75
2021/01/05 11:34:32;;;;;;;14.83;11.50;;;4.00;99.90;;;;;;5026474;28;20214;-74
2021/01/05 11:37:03;;;;;;;12.60;10.93;;;3.90;99.90;;;;;;5025397;28;20871;-74
2021/01/05 11:39:29;;;;;;;17.87;11.87;;;4.00;99.90;;;;;;5019219;28;20986;-75
2021/01/05 11:42:00;;;;;;;12.40;10.70;;;4.00;99.90;;;;;;5025965;28;20426;-74
2021/01/05 11:44:27;;;;;;;14.03;10.93;;;4.00;99.90;;;;;;5008244;28;20211;-75
2021/01/05 11:46:52;;;;;;;12.77;10.20;;;4.00;99.90;;;;;;5023314;28;20489;-75
2021/01/05 11:49:19;;;;;;;14.27;10.77;;;4.00;99.90;;;;;;5020026;28;20580;-75
2021/01/05 11:51:45;;;;;;;17.60;11.93;;;4.10;99.90;;;;;;5008828;28;20242;-77
2021/01/05 11:54:11;;;;;;;12.43;11.03;;;4.20;99.90;;;;;;5008736;28;20950;-73
2021/01/05 11:56:37;;;;;;;14.10;12.20;;;4.10;99.90;;;;;;5025242;28;20438;-73
2021/01/05 11:59:04;;;;;;;13.10;10.17;;;4.00;99.90;;;;;;5025819;28;20464;-72
2021/01/05 12:01:37;;;;;;;13.90;10.60;;;4.00;99.90;;;;;;5027231;28;20191;-73
2021/01/05 12:04:04;;;;;;;12.00;10.07;;;4.00;99.90;;;;;;5026209;28;20462;-73
2021/01/05 12:06:29;;;;;;;13.60;10.87;;;4.00;99.90;;;;;;5025353;28;20466;-73
2021/01/05 12:08:55;;;;;;;13.23;11.17;;;4.00;99.90;;;;;;5025435;28;20461;-73
2021/01/05 12:11:23;;;;;;;11.67;10.47;;;4.00;99.90;;;;;;5029060;28;20663;-73
2021/01/05 12:13:49;;;;;;;10.90;9.37;;;4.00;99.90;;;;;;5029373;28;20273;-73
2021/01/05 12:16:31;;;;;;;13.77;11.20;;;3.80;99.90;;;;;;5029030;28;20525;-72
2021/01/05 12:18:58;;;;;;;14.97;11.00;;;3.90;99.90;;;;;;5022648;28;20927;-73
2021/01/05 12:21:33;;;;;;;15.80;10.60;;;4.00;99.90;;;;;;5029822;28;20553;-74
2021/01/05 12:23:58;;;;;;;13.80;11.10;;;4.00;99.90;;;;;;5029420;28;20511;-73
2021/01/05 12:26:30;;;;;;;13.60;10.30;;;4.00;99.90;;;;;;5028976;28;20453;-73
2021/01/05 12:28:57;;;;;;;12.43;10.60;;;4.00;99.90;;;;;;5024673;28;20257;-72
2021/01/05 12:31:23;;;;;;;15.13;11.60;;;4.00;99.90;;;;;;5029023;28;20426;-73
2021/01/05 12:33:49;;;;;;;11.40;9.07;;;4.10;99.90;;;;;;5029256;28;20492;-73
2021/01/05 12:36:29;;;;;;;12.50;10.17;;;4.10;99.90;;;;;;5028905;28;20505;-73
2021/01/05 12:38:56;;;;;;;13.50;10.23;;;4.10;99.90;;;;;;5028984;28;20217;-73
2021/01/05 12:41:22;;;;;;;14.27;9.73;;;4.10;99.90;;;;;;5021031;28;20499;-73
2021/01/05 12:43:47;;;;;;;11.67;9.70;;;4.20;99.90;;;;;;5010942;28;20469;-73
2021/01/05 12:46:24;;;;;;;10.80;9.47;;;4.10;99.90;;;;;;5026015;28;20930;-71
2021/01/05 12:48:50;;;;;;;11.43;9.50;;;4.10;99.90;;;;;;5028677;28;20285;-74
2021/01/05 12:51:27;;;;;;;10.53;9.43;;;4.10;99.90;;;;;;5028222;28;20509;-73
2021/01/05 12:53:53;;;;;;;12.30;10.50;;;4.10;99.90;;;;;;5028696;28;20277;-74